createdAt,value
2018-10-11T09:28:13.945Z,97662.64
2018-10-11T09:30:43.183Z,97661.41
2018-10-11T09:33:12.788Z,97656.67
2018-10-11T09:35:41.243Z,97657.63
2018-10-11T09:38:09.737Z,97656.75
2018-10-11T09:40:38.445Z,97654.53
2018-10-11T09:43:07.416Z,97655.73
2018-10-11T09:45:36.736Z,97644.41
2018-10-11T09:48:06.649Z,97643.22
2018-10-11T09:50:36.390Z,97646.67
2018-10-11T09:53:05.422Z,97651.30
2018-10-11T09:55:34.543Z,97647.70
2018-10-11T09:58:03.537Z,97643.48
2018-10-11T10:00:33.330Z,97647.09
2018-10-11T10:03:01.817Z,97649.08
2018-10-11T10:05:30.393Z,97647.55
2018-10-11T10:07:59.727Z,97646.81
2018-10-11T10:10:28.904Z,97645.70
2018-10-11T10:12:58.437Z,97645.42
2018-10-11T10:15:27.006Z,97655.33
2018-10-11T10:17:55.874Z,97648.59
2018-10-11T10:20:24.489Z,97643.48
2018-10-11T10:22:52.970Z,97638.79
2018-10-11T10:25:21.611Z,97641.84
2018-10-11T10:27:50.141Z,97634.88
2018-10-11T10:30:23.914Z,97626.95
2018-10-11T10:32:52.439Z,97632.55
2018-10-11T10:35:21.107Z,97632.55
2018-10-11T10:37:50.534Z,97625.56
2018-10-11T10:40:18.980Z,97627.48
2018-10-11T10:42:47.762Z,97626.70
2018-10-11T10:45:16.428Z,97623.81
2018-10-11T10:47:44.997Z,97622.11
2018-10-11T10:50:13.608Z,97621.70
2018-10-11T10:52:42.794Z,97613.38
2018-10-11T10:55:11.376Z,97613.56
2018-10-11T10:57:39.874Z,97620.67
2018-10-11T11:00:09.038Z,97609.99
2018-10-11T11:02:38.212Z,97613.56
2018-10-11T11:05:06.979Z,97608.72
2018-10-11T11:07:35.747Z,97611.98
2018-10-11T11:10:05.497Z,97607.61
2018-10-11T11:12:35.337Z,97610.80
2018-10-11T11:15:04.146Z,97603.27
2018-10-11T11:17:33.177Z,97598.41
2018-10-11T11:20:02.313Z,97594.17
2018-10-11T11:22:30.946Z,97598.54
2018-10-11T11:24:59.528Z,97592.32
2018-10-11T11:27:28.830Z,97593.55
2018-10-11T11:29:57.446Z,97596.20
2018-10-11T11:32:26.027Z,97593.69
2018-10-11T11:34:54.486Z,97598.17
2018-10-11T11:37:23.620Z,97595.13
2018-10-11T11:39:52.205Z,97594.56
2018-10-11T11:42:21.207Z,97582.67
2018-10-11T11:44:49.644Z,97588.83
2018-10-11T11:47:18.084Z,97586.28
2018-10-11T11:49:47.195Z,97582.17
2018-10-11T11:52:28.720Z,97579.35
2018-10-11T11:54:57.660Z,97589.17
2018-10-11T11:57:38.793Z,97583.53
2018-10-11T12:00:08.808Z,97578.67
2018-10-11T12:02:38.039Z,97579.06
2018-10-11T12:05:07.698Z,97572.81
2018-10-11T12:07:36.321Z,97574.05
2018-10-11T12:10:05.223Z,97571.97
2018-10-11T12:13:13.161Z,97577.48
2018-10-11T12:15:43.603Z,97572.14
2018-10-11T12:18:14.096Z,97573.36
2018-10-11T12:20:43.802Z,97575.77
2018-10-11T12:23:13.825Z,97558.92
2018-10-11T12:25:43.049Z,97563.84
2018-10-11T12:28:12.473Z,97560.17
2018-10-11T12:30:43.586Z,97524.55
2018-10-11T12:33:14.679Z,97566.23
2018-10-11T12:35:44.241Z,97568.11
2018-10-11T12:38:12.759Z,97566.22
2018-10-11T12:40:44.583Z,97569.25
2018-10-11T12:43:13.862Z,97574.53
2018-10-11T12:45:42.562Z,97569.05
2018-10-11T12:48:11.180Z,97569.85
2018-10-11T12:50:40.081Z,97566.56
2018-10-11T12:53:09.819Z,97562.56
2018-10-11T12:55:38.481Z,97570.68
2018-10-11T12:58:07.666Z,97569.42
2018-10-11T13:00:36.443Z,97565.50
2018-10-11T13:03:05.199Z,97565.77
2018-10-11T13:05:33.711Z,97566.28
2018-10-11T13:08:05.627Z,97572.44
2018-10-11T13:10:34.114Z,97565.31
2018-10-11T13:13:02.999Z,97563.34
2018-10-11T13:15:31.579Z,97561.41
2018-10-11T13:18:00.125Z,97562.85
2018-10-11T13:20:28.695Z,97561.75
2018-10-11T13:22:57.453Z,97567.80
2018-10-11T13:25:26.057Z,97561.77
2018-10-11T13:27:54.508Z,97564.63
2018-10-11T13:30:24.428Z,97567.86
2018-10-11T13:32:53.348Z,97558.87
2018-10-11T13:35:22.437Z,97560.70
2018-10-11T13:37:51.422Z,97553.81
2018-10-11T13:40:20.176Z,97561.27
2018-10-11T13:42:49.373Z,97555.28
2018-10-11T13:45:17.928Z,97554.45
2018-10-11T13:47:46.364Z,97563.38
2018-10-11T13:50:14.862Z,97560.48
2018-10-11T13:52:43.313Z,97556.20
2018-10-11T13:55:15.049Z,97563.45
2018-10-11T13:57:42.468Z,97560.72
2018-10-11T14:00:11.945Z,97566.26
2018-10-11T14:02:41.105Z,97569.44
2018-10-11T14:05:09.680Z,97565.55
2018-10-11T14:07:38.493Z,97568.08
2018-10-11T14:10:07.334Z,97574.30
2018-10-11T14:12:36.804Z,97573.41
2018-10-11T14:15:05.925Z,97572.52
2018-10-11T14:17:35.194Z,97574.30
2018-10-11T14:20:03.864Z,97567.98
2018-10-11T14:22:32.345Z,97571.53
2018-10-11T14:25:00.919Z,97571.58
2018-10-11T14:27:29.521Z,97574.75
2018-10-11T14:29:57.996Z,97575.36
2018-10-11T14:32:26.580Z,97575.56
2018-10-11T14:34:55.166Z,97565.83
2018-10-11T14:37:24.759Z,97565.70
2018-10-11T14:39:53.649Z,97562.14
2018-10-11T14:42:23.325Z,97566.48
2018-10-11T14:44:51.935Z,97572.04
2018-10-11T14:47:21.006Z,97567.15
2018-10-11T14:49:49.712Z,97567.74
2018-10-11T14:52:18.565Z,97566.20
2018-10-11T14:54:47.150Z,97565.80
2018-10-11T14:57:15.915Z,97572.49
2018-10-11T14:59:44.706Z,97568.35
2018-10-11T15:02:13.231Z,97574.66
2018-10-11T15:04:41.850Z,97569.72
2018-10-11T15:07:10.463Z,97573.66
2018-10-11T15:09:39.092Z,97576.00
2018-10-11T15:12:07.643Z,97570.50
2018-10-11T15:14:36.361Z,97571.47
2018-10-11T15:17:04.955Z,97570.83
2018-10-11T15:19:34.579Z,97572.57
2018-10-11T15:22:03.934Z,97576.69
2018-10-11T15:24:33.373Z,97580.34
2018-10-11T15:27:02.008Z,97580.50
2018-10-11T15:29:31.076Z,97579.28
2018-10-11T15:31:59.612Z,97578.16
2018-10-11T15:34:28.997Z,97581.45
2018-10-11T15:36:57.442Z,97574.94
2018-10-11T15:39:26.240Z,97582.60
2018-10-11T15:41:54.878Z,97583.95
2018-10-11T15:44:24.031Z,97582.70
2018-10-11T15:46:53.737Z,97585.20
2018-10-11T15:49:22.434Z,97587.34
2018-10-11T15:51:51.420Z,97585.72
2018-10-11T15:54:19.902Z,97583.43
2018-10-11T15:56:48.461Z,97583.36
2018-10-11T15:59:17.125Z,97585.20
2018-10-11T16:01:45.705Z,97588.90
2018-10-11T16:04:14.347Z,97590.98
2018-10-11T16:06:42.888Z,97588.61
2018-10-11T16:09:11.742Z,97597.43
2018-10-11T16:11:41.051Z,97598.96
2018-10-11T16:14:09.518Z,97601.79
2018-10-11T16:16:38.287Z,97601.73
2018-10-11T16:19:06.844Z,97605.77
2018-10-11T16:21:35.328Z,97608.05
2018-10-11T16:24:04.387Z,97607.36
2018-10-11T16:26:33.245Z,97610.22
2018-10-11T16:29:01.769Z,97617.03
2018-10-11T16:31:30.441Z,97618.71
2018-10-11T16:33:59.614Z,97622.52
2018-10-11T16:36:28.681Z,97615.42
2018-10-11T16:38:57.302Z,97623.59
2018-10-11T16:41:25.748Z,97620.17
2018-10-11T16:43:56.350Z,97623.28
2018-10-11T16:46:25.223Z,97620.09
2018-10-11T16:48:54.727Z,97621.36
2018-10-11T16:51:23.843Z,97620.48
2018-10-11T16:53:52.439Z,97622.77
2018-10-11T16:56:21.540Z,97625.23
2018-10-11T16:58:50.216Z,97629.05
2018-10-11T17:01:18.756Z,97637.21
2018-10-11T17:03:47.289Z,97637.94
2018-10-11T17:06:15.791Z,97639.03
2018-10-11T17:08:44.907Z,97637.58
2018-10-11T17:11:13.488Z,97639.59
2018-10-11T17:13:42.162Z,97642.77
2018-10-11T17:16:11.613Z,97640.97
2018-10-11T17:18:40.857Z,97644.80
2018-10-11T17:21:10.246Z,97646.83
2018-10-11T17:23:38.926Z,97652.59
2018-10-11T17:26:07.908Z,97656.27
2018-10-11T17:28:36.531Z,97659.88
2018-10-11T17:31:06.834Z,97663.91
2018-10-11T17:33:38.136Z,97667.80
2018-10-11T17:36:09.168Z,97657.17
2018-10-11T17:38:40.053Z,97654.00
2018-10-11T17:41:11.561Z,97657.61
2018-10-11T17:43:42.118Z,97664.19
2018-10-11T17:46:13.172Z,97667.06
2018-10-11T17:48:43.677Z,97666.56
2018-10-11T17:51:14.543Z,97667.00
2018-10-11T17:53:45.237Z,97666.35
2018-10-11T17:56:15.601Z,97665.62
2018-10-11T17:58:46.297Z,97669.75
2018-10-11T18:01:17.166Z,97674.14
2018-10-11T18:03:48.363Z,97678.63
2018-10-11T18:06:21.002Z,97680.98
2018-10-11T18:08:52.755Z,97683.59
2018-10-11T18:11:23.270Z,97684.16
2018-10-11T18:13:54.633Z,97692.30
2018-10-11T18:16:25.155Z,97695.88
2018-10-11T18:18:56.365Z,97696.72
2018-10-11T18:21:28.164Z,97695.36
2018-10-11T18:24:00.302Z,97696.16
2018-10-11T18:26:31.891Z,97693.55
2018-10-11T18:29:04.683Z,97698.22
2018-10-11T18:31:35.571Z,97689.31
2018-10-11T18:34:06.694Z,97700.73
2018-10-11T18:36:46.665Z,97710.20
2018-10-11T18:39:21.264Z,97714.09
2018-10-11T18:41:54.720Z,97708.97
2018-10-11T18:44:31.559Z,97709.89
2018-10-11T18:47:06.568Z,97717.16
2018-10-11T18:49:40.054Z,97714.65
2018-10-11T18:52:13.391Z,97718.08
2018-10-11T18:54:48.238Z,97713.06
2018-10-11T18:57:24.156Z,97706.11
2018-10-11T19:00:00.387Z,97712.40
2018-10-11T19:02:36.100Z,97712.75
2018-10-11T19:05:11.619Z,97708.66
2018-10-11T19:07:51.103Z,97717.45
2018-10-11T19:10:25.378Z,97714.75
2018-10-11T19:13:05.572Z,97722.24
2018-10-11T19:15:44.834Z,97721.80
2018-10-11T19:18:18.869Z,97728.66
2018-10-11T19:20:50.729Z,97731.56
2018-10-11T19:23:23.694Z,97735.09
2018-10-11T19:25:56.754Z,97736.93
2018-10-11T19:28:34.005Z,97735.56
2018-10-11T19:31:09.520Z,97734.67
2018-10-11T19:33:41.229Z,97728.89
2018-10-11T19:36:12.131Z,97729.52
2018-10-11T19:38:55.534Z,97729.16
2018-10-11T19:41:35.941Z,97730.88
2018-10-11T19:44:08.046Z,97742.17
2018-10-11T19:46:39.101Z,97736.93
2018-10-11T19:49:10.689Z,97742.73
2018-10-11T19:51:41.888Z,97747.31
2018-10-11T19:54:13.165Z,97741.07
2018-10-11T19:56:44.193Z,97740.16
2018-10-11T19:59:16.647Z,97740.84
2018-10-11T20:01:47.452Z,97740.20
2018-10-11T20:04:18.478Z,97738.84
2018-10-11T20:06:49.873Z,97743.73
2018-10-11T20:09:22.816Z,97746.11
2018-10-11T20:11:53.736Z,97752.05
2018-10-11T20:14:25.246Z,97744.45
2018-10-11T20:16:56.009Z,97756.73
2018-10-11T20:19:24.637Z,97752.87
2018-10-11T20:21:53.510Z,97757.77
2018-10-11T20:24:23.272Z,97759.23
2018-10-11T20:26:52.044Z,97765.77
2018-10-11T20:29:21.510Z,97761.70
2018-10-11T20:31:50.830Z,97765.55
2018-10-11T20:34:19.622Z,97761.34
2018-10-11T20:36:48.235Z,97764.07
2018-10-11T20:39:18.195Z,97768.95
2018-10-11T20:41:51.367Z,97771.78
2018-10-11T20:44:21.355Z,97772.89
2018-10-11T20:46:50.320Z,97769.70
2018-10-11T20:49:20.381Z,97782.77
2018-10-11T20:51:49.034Z,97781.27
2018-10-11T20:54:17.648Z,97784.20
2018-10-11T20:56:46.371Z,97787.72
2018-10-11T20:59:15.169Z,97790.67
2018-10-11T21:01:43.825Z,97786.69
2018-10-11T21:04:12.442Z,97791.90
2018-10-11T21:06:41.900Z,97792.93
2018-10-11T21:09:11.502Z,97798.50
2018-10-11T21:11:40.470Z,97801.55
2018-10-11T21:14:09.456Z,97801.09
2018-10-11T21:16:38.133Z,97798.04
2018-10-11T21:19:08.053Z,97798.94
2018-10-11T21:21:36.970Z,97812.94
2018-10-11T21:24:06.212Z,97812.28
2018-10-11T21:26:34.701Z,97810.48
2018-10-11T21:29:03.649Z,97811.19
2018-10-11T21:31:32.707Z,97816.75
2018-10-11T21:34:01.879Z,97817.09
2018-10-11T21:36:30.315Z,97805.87
2018-10-11T21:38:58.827Z,97815.50
2018-10-11T21:41:27.215Z,97814.56
2018-10-11T21:43:55.953Z,97815.93
2018-10-11T21:46:24.541Z,97813.41
2018-10-11T21:48:52.943Z,97817.36
2018-10-11T21:51:21.442Z,97816.78
2018-10-11T21:53:50.410Z,97807.03
2018-10-11T21:56:18.931Z,97813.83
2018-10-11T21:58:47.757Z,97809.98
2018-10-11T22:01:21.486Z,97814.06
2018-10-11T22:03:50.112Z,97817.22
2018-10-11T22:06:19.137Z,97819.80
2018-10-11T22:08:47.603Z,97834.98
2018-10-11T22:11:17.706Z,97832.76
2018-10-11T22:13:46.253Z,97835.58
2018-10-11T22:16:14.755Z,97835.95
2018-10-11T22:18:43.228Z,97839.36
2018-10-11T22:21:13.514Z,97844.14
2018-10-11T22:23:43.092Z,97840.02
2018-10-11T22:26:13.085Z,97848.19
2018-10-11T22:28:42.435Z,97850.34
2018-10-11T22:31:12.821Z,97850.44
2018-10-11T22:33:42.812Z,97849.97
2018-10-11T22:36:12.510Z,97855.64
2018-10-11T22:38:41.658Z,97861.88
2018-10-11T22:41:11.452Z,97873.13
2018-10-11T22:43:40.850Z,97875.05
2018-10-11T22:46:09.457Z,97874.20
2018-10-11T22:48:37.889Z,97883.49
2018-10-11T22:51:06.446Z,97881.57
2018-10-11T22:53:34.992Z,97877.62
2018-10-11T22:56:03.457Z,97881.66
2018-10-11T22:58:32.319Z,97882.79
2018-10-11T23:01:00.831Z,97884.71
2018-10-11T23:03:30.577Z,97881.76
2018-10-11T23:06:02.393Z,97883.12
2018-10-11T23:08:37.142Z,97887.64
2018-10-11T23:11:07.888Z,97890.78
2018-10-11T23:13:37.108Z,97898.09
2018-10-11T23:16:05.660Z,97899.10
2018-10-11T23:18:36.123Z,97897.63
2018-10-11T23:21:05.201Z,97858.97
2018-10-11T23:23:34.741Z,97897.39
2018-10-11T23:26:03.322Z,97900.41
2018-10-11T23:28:31.879Z,97910.64
2018-10-11T23:31:00.312Z,97916.92
2018-10-11T23:33:28.898Z,97921.81
2018-10-11T23:35:57.322Z,97924.98
2018-10-11T23:38:26.624Z,97923.82
2018-10-11T23:40:55.115Z,97930.93
2018-10-11T23:43:23.580Z,97925.70
2018-10-11T23:45:52.029Z,97927.37
2018-10-11T23:48:20.558Z,97931.21
2018-10-11T23:50:49.085Z,97933.36
2018-10-11T23:53:17.525Z,97933.44
2018-10-11T23:55:45.958Z,97939.27
2018-10-11T23:58:15.149Z,97940.16
